Time;durP1;ratioP1;P1;durP2;ratioP2;P2;SDS_P1;SDS_P2;PMS_P1;PMS_P2;Temp;Humidity;BMP_temperature;BMP_pressure;BME280_temperature;BME280_humidity;BME280_pressure;Samples;Min_cycle;Max_cycle;Signal;HPM_P1;HPM_P2
2022/10/19 00:01:20;;;;;;;15.60;9.40;;;;;;;5.86;58.83;100085.47;5098531;28;20076;-88
2022/10/19 00:03:47;;;;;;;13.65;9.20;;;;;;;5.87;58.61;100075.19;5099286;28;20027;-88
2022/10/19 00:06:16;;;;;;;17.58;10.32;;;;;;;5.84;58.23;100079.34;5100429;28;20088;-90
2022/10/19 00:08:43;;;;;;;16.23;9.82;;;;;;;5.95;57.54;100068.19;5098355;28;20020;-89
2022/10/19 00:11:09;;;;;;;12.40;9.13;;;;;;;5.88;57.57;100065.72;5097129;28;20023;-88
2022/10/19 00:13:35;;;;;;;18.20;9.68;;;;;;;5.98;57.67;100062.88;5096980;28;20047;-88
2022/10/19 00:16:01;;;;;;;20.63;9.40;;;;;;;6.10;57.46;100068.09;5096730;28;20027;-89
2022/10/19 00:18:26;;;;;;;16.45;9.27;;;;;;;6.09;57.08;100046.16;5097158;28;20081;-90
2022/10/19 00:20:52;;;;;;;14.63;9.77;;;;;;;6.15;57.48;100051.38;5095895;28;20485;-89
2022/10/19 00:23:17;;;;;;;16.45;8.63;;;;;;;6.29;57.86;100031.25;5096768;28;20026;-89
2022/10/19 00:25:54;;;;;;;15.00;8.57;;;;;;;6.23;57.38;100030.47;5096682;28;20031;-88
2022/10/19 00:28:20;;;;;;;17.10;8.50;;;;;;;6.23;58.10;100027.69;5096325;28;20557;-89
2022/10/19 00:30:45;;;;;;;20.90;9.30;;;;;;;6.30;57.99;100030.97;5095507;28;20031;-89
2022/10/19 00:33:11;;;;;;;12.13;8.70;;;;;;;6.17;58.65;100034.44;5096649;28;20031;-88
2022/10/19 00:35:39;;;;;;;13.25;9.20;;;;;;;6.18;59.22;100027.75;5096316;28;20078;-89
2022/10/19 00:38:05;;;;;;;14.75;8.35;;;;;;;5.87;60.19;100012.16;5113092;28;20028;-88
2022/10/19 00:40:37;;;;;;;16.48;9.55;;;;;;;5.87;60.58;100022.44;5098721;28;20490;-88
2022/10/19 00:43:02;;;;;;;16.60;9.77;;;;;;;5.67;60.70;100004.00;5076358;28;20028;-88
2022/10/19 00:45:28;;;;;;;22.65;9.93;;;;;;;5.57;60.75;100007.69;5075760;28;20039;-90
2022/10/19 00:47:54;;;;;;;14.80;8.85;;;;;;;5.47;60.56;100014.09;5075793;28;20490;-91
2022/10/19 00:50:20;;;;;;;15.38;10.05;;;;;;;5.44;60.56;100028.56;5089267;28;20032;-90
2022/10/19 00:52:45;;;;;;;17.30;9.50;;;;;;;5.48;60.85;100008.28;5089218;28;20495;-89
2022/10/19 00:55:12;;;;;;;17.63;8.65;;;;;;;5.53;60.81;100012.97;5075619;28;20024;-89
2022/10/19 00:57:38;;;;;;;17.80;9.35;;;;;;;5.79;60.63;100010.00;5075663;28;20027;-90
2022/10/19 01:00:06;;;;;;;16.25;9.88;;;;;;;6.06;59.56;99996.75;5086187;28;20035;-89
2022/10/19 01:02:31;;;;;;;13.68;9.75;;;;;;;6.07;59.07;99977.00;5079699;28;20042;-89
2022/10/19 01:04:58;;;;;;;12.80;8.63;;;;;;;6.23;58.96;99991.59;5075512;28;20478;-89
2022/10/19 01:07:25;;;;;;;16.67;8.70;;;;;;;6.26;59.13;99990.19;5075495;28;20020;-88
2022/10/19 01:09:51;;;;;;;15.27;9.25;;;;;;;5.94;59.05;99961.84;5084016;28;20106;-88
2022/10/19 01:12:51;;;;;;;11.18;8.00;;;;;;;6.07;59.82;99988.13;5095420;28;20110;-89
2022/10/19 01:15:30;;;;;;;13.48;8.07;;;;;;;5.90;59.32;99982.97;5095793;28;20449;-89
2022/10/19 01:18:01;;;;;;;16.58;8.23;;;;;;;5.94;59.64;99983.22;5095545;28;20037;-92
2022/10/19 01:21:01;;;;;;;10.90;8.32;;;;;;;5.91;59.38;99992.94;5091463;28;20077;-88
2022/10/19 01:23:54;;;;;;;14.20;8.27;;;;;;;5.73;59.37;99964.78;5091879;28;20024;-91
2022/10/19 01:26:23;;;;;;;15.18;8.25;;;;;;;5.84;59.60;99973.03;5091887;28;20024;-89
2022/10/19 01:28:52;;;;;;;13.73;8.18;;;;;;;5.60;60.12;99980.16;5091166;28;20438;-90
2022/10/19 01:31:26;;;;;;;13.67;7.97;;;;;;;5.43;60.18;99986.13;5095303;28;20032;-89
2022/10/19 01:34:13;;;;;;;15.77;9.05;;;;;;;5.20;61.55;99980.16;5095192;28;20456;-89
2022/10/19 01:36:57;;;;;;;14.05;8.00;;;;;;;5.46;60.79;99980.00;5095165;28;20049;-91
2022/10/19 01:39:45;;;;;;;15.85;9.10;;;;;;;5.14;61.18;99959.09;5090856;28;20026;-88
2022/10/19 01:42:36;;;;;;;16.85;9.00;;;;;;;5.23;60.86;99970.41;5102799;28;20510;-89
2022/10/19 01:45:24;;;;;;;13.10;7.93;;;;;;;5.17;61.04;99966.84;5075335;28;20485;-88
2022/10/19 01:48:08;;;;;;;16.73;9.85;;;;;;;5.19;61.03;99953.53;5074706;28;20463;-88
2022/10/19 01:50:49;;;;;;;11.90;8.10;;;;;;;5.39;60.63;99967.56;5085950;28;20035;-89
2022/10/19 01:53:18;;;;;;;14.13;7.28;;;;;;;5.48;59.91;99951.94;5074531;28;20035;-88
2022/10/19 01:55:48;;;;;;;10.88;7.53;;;;;;;5.61;59.81;99947.69;5074670;28;20482;-89
2022/10/19 01:58:20;;;;;;;18.48;8.75;;;;;;;5.62;59.74;99943.78;5074617;28;20031;-92
2022/10/19 02:00:51;;;;;;;14.40;9.13;;;;;;;5.65;59.57;99940.44;5074771;28;20410;-90
2022/10/19 02:03:18;;;;;;;25.05;11.88;;;;;;;5.66;59.61;99941.28;5074437;28;20115;-89
2022/10/19 02:05:46;;;;;;;16.20;9.20;;;;;;;5.62;59.91;99936.31;5074546;28;20406;-91
2022/10/19 02:08:17;;;;;;;12.00;8.13;;;;;;;5.48;60.06;99941.69;5074403;28;20103;-90
2022/10/19 02:10:44;;;;;;;15.10;7.90;;;;;;;5.28;60.34;99928.78;5084645;28;20024;-89
2022/10/19 02:13:12;;;;;;;14.93;7.97;;;;;;;5.18;60.82;99918.56;5091291;28;20490;-89
2022/10/19 02:15:41;;;;;;;12.65;8.18;;;;;;;5.00;61.60;99917.31;5091222;28;20024;-91
2022/10/19 02:18:09;;;;;;;11.57;7.35;;;;;;;5.13;61.59;99931.66;5091503;28;20024;-90
2022/10/19 02:20:36;;;;;;;16.58;7.97;;;;;;;4.99;62.09;99923.16;5093777;28;20028;-88
2022/10/19 02:23:05;;;;;;;14.85;7.72;;;;;;;4.90;61.78;99907.13;5094332;28;20063;-91
2022/10/19 02:25:32;;;;;;;13.93;8.57;;;;;;;4.91;61.97;99916.28;5094510;28;20023;-92
2022/10/19 02:27:59;;;;;;;11.77;8.00;;;;;;;4.92;61.91;99917.94;5094239;28;20051;-89
2022/10/19 02:30:25;;;;;;;11.90;8.35;;;;;;;4.80;62.38;99903.59;5093490;28;20043;-88
2022/10/19 02:32:51;;;;;;;12.60;8.32;;;;;;;4.81;62.86;99908.00;5094463;28;20484;-89
2022/10/19 02:35:17;;;;;;;15.73;9.38;;;;;;;4.59;62.65;99903.69;5094379;28;20405;-88
2022/10/19 02:37:43;;;;;;;15.43;8.57;;;;;;;4.70;62.77;99915.53;5094494;28;20024;-90
2022/10/19 02:40:09;;;;;;;11.30;8.30;;;;;;;4.37;63.08;99898.53;5093679;28;20032;-90
2022/10/19 02:42:53;;;;;;;17.67;9.85;;;;;;;4.46;63.45;99913.44;5095243;28;20107;-89
2022/10/19 02:45:26;;;;;;;14.88;9.93;;;;;;;4.29;64.35;99911.03;5095509;28;20027;-90
2022/10/19 02:48:01;;;;;;;13.02;8.85;;;;;;;4.34;63.87;99911.84;5095199;28;20024;-90
2022/10/19 02:50:26;;;;;;;13.80;8.45;;;;;;;4.28;63.81;99907.41;5094001;28;20028;-90
2022/10/19 02:52:52;;;;;;;14.95;9.75;;;;;;;4.35;63.50;99902.41;5099325;28;20031;-90
2022/10/19 02:55:17;;;;;;;17.27;10.13;;;;;;;4.25;63.56;99907.97;5094639;28;20035;-88
2022/10/19 02:57:43;;;;;;;15.50;9.60;;;;;;;4.22;63.62;99897.44;5095003;28;20474;-90
2022/10/19 03:00:10;;;;;;;16.15;9.88;;;;;;;4.27;63.24;99889.13;5089239;28;20027;-90
2022/10/19 03:02:36;;;;;;;16.70;9.35;;;;;;;4.15;63.96;99881.13;5077849;28;20038;-88
2022/10/19 03:05:02;;;;;;;20.52;10.13;;;;;;;4.24;63.53;99886.09;5077908;28;20486;-88
2022/10/19 03:07:28;;;;;;;13.63;8.77;;;;;;;4.09;63.79;99871.19;5078015;28;20020;-88
2022/10/19 03:09:53;;;;;;;15.52;9.48;;;;;;;4.21;64.12;99879.19;5083963;28;20024;-91
2022/10/19 03:12:19;;;;;;;21.40;10.35;;;;;;;4.49;62.92;99880.44;5098192;28;20051;-88
2022/10/19 03:14:44;;;;;;;15.75;9.50;;;;;;;4.28;63.53;99873.34;5098191;28;20466;-91
2022/10/19 03:17:10;;;;;;;19.83;9.70;;;;;;;4.20;63.22;99878.38;5098349;28;20028;-89
2022/10/19 03:19:36;;;;;;;15.40;10.95;;;;;;;4.07;63.67;99857.63;5096934;28;20470;-89
2022/10/19 03:22:02;;;;;;;15.90;10.48;;;;;;;4.09;64.29;99879.50;5097868;28;20024;-90
2022/10/19 03:24:29;;;;;;;17.85;10.35;;;;;;;3.71;64.90;99866.03;5115813;28;20035;-90
2022/10/19 03:26:54;;;;;;;16.30;10.90;;;;;;;3.67;64.70;99853.03;5080761;28;20034;-90
2022/10/19 03:29:20;;;;;;;17.27;10.82;;;;;;;3.57;65.78;99876.00;5096183;28;20452;-90
2022/10/19 03:31:45;;;;;;;24.98;12.30;;;;;;;3.65;65.59;99867.16;5094444;28;20028;-89
2022/10/19 03:34:11;;;;;;;25.73;16.67;;;;;;;3.63;66.26;99869.38;5094389;28;20066;-90
2022/10/19 03:36:38;;;;;;;43.00;28.17;;;;;;;3.86;65.19;99880.94;5094435;28;20493;-90
2022/10/19 03:39:06;;;;;;;39.25;26.05;;;;;;;3.96;65.16;99869.03;5094083;28;20035;-88
2022/10/19 03:41:34;;;;;;;34.72;22.65;;;;;;;3.78;66.59;99876.81;5079890;28;20486;-90
2022/10/19 03:44:00;;;;;;;52.85;34.92;;;;;;;4.17;65.43;99870.63;5077107;28;20028;-88
2022/10/19 03:46:26;;;;;;;44.30;24.92;;;;;;;3.87;65.10;99857.72;5077323;28;20043;-88
2022/10/19 03:48:52;;;;;;;22.35;16.65;;;;;;;3.88;65.86;99864.91;5077364;28;20041;-89
2022/10/19 03:51:24;;;;;;;26.13;15.07;;;;;;;3.69;67.09;99873.78;5092848;28;20043;-91
2022/10/19 03:54:02;;;;;;;24.67;14.43;;;;;;;3.75;66.67;99869.91;5080566;28;20030;-90
2022/10/19 03:56:29;;;;;;;27.40;14.00;;;;;;;3.57;66.75;99864.94;5080703;28;20023;-90
2022/10/19 03:58:56;;;;;;;24.15;15.70;;;;;;;3.49;66.95;99853.31;5096110;28;20431;-90
2022/10/19 04:01:25;;;;;;;31.95;16.65;;;;;;;3.40;67.96;99865.22;5080776;28;20053;-89
2022/10/19 04:04:00;;;;;;;20.70;12.23;;;;;;;3.29;67.68;99858.88;5080130;28;20413;-88
2022/10/19 04:06:31;;;;;;;19.63;12.10;;;;;;;3.33;67.94;99854.44;5096940;28;20088;-89
2022/10/19 04:08:58;;;;;;;26.80;13.38;;;;;;;3.62;67.44;99862.16;5079692;28;20032;-91
2022/10/19 04:11:26;;;;;;;32.70;16.70;;;;;;;3.40;67.58;99832.03;5096794;28;20027;-90
2022/10/19 04:13:53;;;;;;;33.42;19.95;;;;;;;3.54;68.19;99855.25;5096547;28;20077;-90
2022/10/19 04:16:21;;;;;;;40.03;21.17;;;;;;;3.54;67.59;99852.50;5096863;28;20024;-89
2022/10/19 04:18:46;;;;;;;35.35;21.45;;;;;;;3.56;68.00;99847.53;5096966;28;20413;-90
2022/10/19 04:21:39;;;;;;;32.05;19.35;;;;;;;3.44;67.65;99816.53;5095832;28;20076;-88
2022/10/19 04:24:13;;;;;;;24.95;16.15;;;;;;;3.39;68.87;99838.69;5094838;28;20480;-88
2022/10/19 04:26:41;;;;;;;25.92;16.25;;;;;;;3.30;68.67;99830.94;5096335;28;20031;-90
2022/10/19 04:29:07;;;;;;;40.63;24.50;;;;;;;3.08;70.04;99834.00;5096198;28;20110;-91
2022/10/19 04:31:33;;;;;;;34.70;20.90;;;;;;;3.25;69.16;99830.13;5096644;28;20031;-89
2022/10/19 04:33:59;;;;;;;35.75;18.98;;;;;;;3.33;69.44;99827.63;5096590;28;20016;-90
2022/10/19 04:36:24;;;;;;;23.50;15.50;;;;;;;3.42;68.30;99824.28;5096374;28;20031;-90
2022/10/19 04:38:50;;;;;;;28.95;15.68;;;;;;;3.64;67.91;99824.81;5096427;28;20028;-89
2022/10/19 04:41:18;;;;;;;31.17;17.17;;;;;;;3.36;68.95;99831.75;5076573;28;20040;-91
2022/10/19 04:43:44;;;;;;;28.10;17.77;;;;;;;3.39;68.75;99822.09;5076325;28;20043;-88
2022/10/19 04:46:12;;;;;;;28.27;17.10;;;;;;;3.66;68.36;99830.06;5076022;28;20509;-89
2022/10/19 04:48:39;;;;;;;31.58;18.48;;;;;;;3.53;67.79;99808.53;5076167;28;20027;-88
2022/10/19 04:51:05;;;;;;;29.85;17.90;;;;;;;3.59;68.08;99832.28;5092814;28;20545;-90
2022/10/19 04:53:32;;;;;;;34.00;18.63;;;;;;;3.63;67.69;99816.81;5078358;28;20482;-90
2022/10/19 04:55:57;;;;;;;29.13;13.65;;;;;;;3.56;67.43;99805.19;5059222;28;20110;-88
2022/10/19 04:58:23;;;;;;;26.05;12.95;;;;;;;3.66;67.17;99819.00;5075903;28;20497;-91
2022/10/19 05:00:49;;;;;;;31.73;13.15;;;;;;;3.59;66.99;99801.88;5089825;28;20060;-89
2022/10/19 05:03:14;;;;;;;22.23;13.07;;;;;;;3.53;67.31;99808.53;5095042;28;20122;-90
2022/10/19 05:05:40;;;;;;;30.15;13.00;;;;;;;3.75;66.81;99822.88;5096947;28;20413;-91
2022/10/19 05:08:06;;;;;;;25.08;11.93;;;;;;;3.59;67.07;99824.00;5075525;28;20112;-91
2022/10/19 05:10:31;;;;;;;24.85;14.75;;;;;;;3.60;66.67;99823.72;5086950;28;20110;-90
2022/10/19 05:13:00;;;;;;;34.35;17.83;;;;;;;3.51;67.44;99830.94;5095680;28;20027;-90
2022/10/19 05:15:25;;;;;;;25.85;14.77;;;;;;;3.56;66.93;99814.34;5095791;28;20027;-89
2022/10/19 05:17:51;;;;;;;36.17;14.63;;;;;;;3.63;67.08;99812.09;5095631;28;20028;-89
2022/10/19 05:20:16;;;;;;;25.75;13.82;;;;;;;3.45;67.73;99802.44;5093541;28;20023;-89
2022/10/19 05:22:42;;;;;;;26.10;14.40;;;;;;;3.78;66.54;99805.69;5085591;28;20026;-90
2022/10/19 05:25:07;;;;;;;21.23;12.55;;;;;;;3.78;67.31;99818.69;5081790;28;20395;-88
2022/10/19 05:27:33;;;;;;;22.05;11.60;;;;;;;3.59;67.95;99812.94;5080634;28;20051;-87
2022/10/19 05:29:58;;;;;;;16.70;11.43;;;;;;;3.65;67.58;99800.75;5091224;28;20024;-88
2022/10/19 05:32:24;;;;;;;22.02;12.07;;;;;;;3.89;67.12;99823.09;5087865;28;20028;-87
2022/10/19 05:34:49;;;;;;;18.23;11.93;;;;;;;3.95;67.87;99818.38;5081050;28;20489;-90
2022/10/19 05:37:16;;;;;;;22.25;10.30;;;;;;;4.28;66.28;99823.47;5091725;28;20057;-88
2022/10/19 05:39:41;;;;;;;22.40;10.05;;;;;;;4.48;65.66;99831.69;5078537;28;20081;-87
2022/10/19 05:42:07;;;;;;;24.58;10.88;;;;;;;4.61;65.25;99833.03;5084399;28;20087;-91
2022/10/19 05:44:33;;;;;;;27.02;12.80;;;;;;;4.43;65.74;99820.66;5092209;28;20028;-90
2022/10/19 05:46:59;;;;;;;21.75;11.25;;;;;;;4.53;66.47;99830.84;5091912;28;20034;-91
2022/10/19 05:49:25;;;;;;;19.92;12.13;;;;;;;4.60;66.27;99820.28;5070104;28;20068;-90
2022/10/19 05:51:50;;;;;;;19.75;12.00;;;;;;;4.85;66.00;99815.69;5089476;28;20059;-90
2022/10/19 05:54:16;;;;;;;18.00;11.40;;;;;;;4.99;65.22;99798.41;5085429;28;20489;-88
2022/10/19 05:56:42;;;;;;;21.27;10.15;;;;;;;5.51;64.37;99826.50;5082128;28;20027;-86
2022/10/19 05:59:12;;;;;;;20.50;10.60;;;;;;;5.69;63.54;99813.84;5087968;28;20123;-87
2022/10/19 06:01:38;;;;;;;16.42;10.52;;;;;;;5.95;62.66;99813.56;5090920;28;20024;-87
2022/10/19 06:04:04;;;;;;;24.10;10.30;;;;;;;5.95;62.15;99791.34;5082764;28;20059;-86
2022/10/19 06:06:30;;;;;;;21.48;11.65;;;;;;;6.03;62.21;99804.63;5079659;28;20023;-87
2022/10/19 06:08:57;;;;;;;20.92;10.48;;;;;;;6.18;61.71;99794.44;5093697;28;20027;-87
2022/10/19 06:11:33;;;;;;;21.08;11.32;;;;;;;6.11;61.09;99788.41;5111970;28;20031;-88
2022/10/19 06:14:01;;;;;;;14.60;10.05;;;;;;;6.16;60.97;99808.59;5093436;28;20091;-87
2022/10/19 06:16:28;;;;;;;23.75;10.68;;;;;;;6.22;61.54;99828.00;5094071;28;20035;-87
2022/10/19 06:18:55;;;;;;;22.10;11.50;;;;;;;6.47;61.11;99824.03;5093890;28;20027;-88
2022/10/19 06:21:23;;;;;;;22.67;11.23;;;;;;;6.49;61.05;99821.78;5094959;28;20490;-86
2022/10/19 06:23:57;;;;;;;17.92;10.75;;;;;;;6.56;60.77;99819.47;5093868;28;20068;-86
2022/10/19 06:26:23;;;;;;;22.13;9.50;;;;;;;6.80;60.07;99818.56;5093954;28;20028;-86
2022/10/19 06:28:49;;;;;;;23.77;10.75;;;;;;;7.15;59.62;99815.53;5086266;28;20574;-86
2022/10/19 06:31:15;;;;;;;20.05;10.05;;;;;;;7.30;58.58;99811.66;5073833;28;20059;-87
2022/10/19 06:33:43;;;;;;;19.05;9.90;;;;;;;7.48;57.93;99809.97;5073627;28;20028;-88
2022/10/19 06:36:14;;;;;;;22.67;9.27;;;;;;;7.63;58.08;99808.84;5073858;28;20044;-87
2022/10/19 06:38:40;;;;;;;14.15;10.52;;;;;;;7.83;57.22;99799.28;5073530;28;20131;-87
2022/10/19 06:41:06;;;;;;;18.52;12.00;;;;;;;8.13;56.51;99794.22;5076398;28;20509;-88
2022/10/19 06:43:33;;;;;;;28.13;11.88;;;;;;;8.48;56.12;99804.91;5093272;28;20035;-86
2022/10/19 06:46:02;;;;;;;17.85;11.25;;;;;;;8.55;54.71;99799.75;5086436;28;20027;-86
2022/10/19 06:48:28;;;;;;;24.65;12.45;;;;;;;8.54;54.58;99800.91;5093386;28;20047;-86
2022/10/19 06:51:02;;;;;;;24.63;12.25;;;;;;;8.66;54.62;99792.00;5093721;28;20063;-86
2022/10/19 06:53:28;;;;;;;25.15;11.13;;;;;;;8.81;54.49;99789.97;5093664;28;20043;-86
2022/10/19 06:55:59;;;;;;;18.23;10.35;;;;;;;8.98;53.92;99792.09;5092255;28;20073;-86
2022/10/19 06:58:25;;;;;;;20.27;10.52;;;;;;;9.01;53.84;99787.84;5072979;28;20024;-86
2022/10/19 07:00:58;;;;;;;15.80;9.90;;;;;;;9.30;54.38;99789.34;5090132;28;20081;-86
2022/10/19 07:03:25;;;;;;;18.60;9.20;;;;;;;9.55;53.15;99790.66;5090045;28;20028;-86
2022/10/19 07:05:56;;;;;;;18.95;9.15;;;;;;;9.60;52.28;99782.13;5090903;28;20035;-86
2022/10/19 07:08:22;;;;;;;16.55;9.18;;;;;;;9.60;52.07;99773.75;5093543;28;20405;-85
2022/10/19 07:10:52;;;;;;;25.13;9.48;;;;;;;9.82;50.78;99778.44;5109519;28;20019;-87
2022/10/19 07:13:18;;;;;;;24.33;8.77;;;;;;;9.91;50.42;99764.53;5078545;28;20024;-85
2022/10/19 07:15:44;;;;;;;18.98;9.43;;;;;;;10.16;49.34;99764.94;5077540;28;20088;-86
2022/10/19 07:18:09;;;;;;;17.20;9.15;;;;;;;10.38;48.35;99768.75;5073281;28;20021;-87
2022/10/19 07:20:34;;;;;;;22.27;9.90;;;;;;;10.56;47.73;99749.22;5081620;28;20039;-86
2022/10/19 07:23:01;;;;;;;15.10;8.35;;;;;;;10.78;47.47;99765.00;5080900;28;20047;-86
2022/10/19 07:25:27;;;;;;;20.38;9.15;;;;;;;10.82;46.87;99746.44;5073007;28;20101;-87
2022/10/19 07:27:52;;;;;;;25.13;7.43;;;;;;;11.12;45.56;99751.34;5083249;28;20051;-87
2022/10/19 07:30:19;;;;;;;11.27;6.82;;;;;;;11.32;44.76;99761.81;5097332;28;20028;-86
2022/10/19 07:32:44;;;;;;;31.63;10.00;;;;;;;11.50;44.32;99750.59;5097188;28;20020;-87
2022/10/19 07:35:10;;;;;;;14.38;7.80;;;;;;;11.51;44.61;99743.81;5086010;28;20624;-86
2022/10/19 07:37:35;;;;;;;15.48;7.55;;;;;;;11.93;44.05;99748.75;5076610;28;20036;-87
2022/10/19 07:40:01;;;;;;;12.10;6.38;;;;;;;12.19;42.52;99745.84;5076519;28;20035;-87
2022/10/19 07:42:29;;;;;;;15.10;6.68;;;;;;;12.57;41.27;99740.47;5094762;28;20093;-87
2022/10/19 07:44:55;;;;;;;15.48;7.25;;;;;;;12.68;41.04;99738.06;5094696;28;20016;-87
2022/10/19 07:47:20;;;;;;;32.03;9.55;;;;;;;13.00;40.40;99730.84;5093431;28;20027;-85
2022/10/19 07:49:46;;;;;;;127.93;13.35;;;;;;;13.30;39.76;99725.09;5093448;28;20062;-88
2022/10/19 07:52:12;;;;;;;26.20;13.27;;;;;;;13.47;39.02;99720.47;5093416;28;20016;-87
2022/10/19 07:54:37;;;;;;;15.95;8.68;;;;;;;13.74;37.90;99720.97;5087397;28;20023;-88
2022/10/19 07:57:03;;;;;;;15.50;7.15;;;;;;;13.65;37.96;99706.22;5076384;28;20555;-86
2022/10/19 07:59:29;;;;;;;39.83;17.75;;;;;;;14.07;38.13;99714.41;5077358;28;20023;-86
2022/10/19 08:01:55;;;;;;;11.40;6.90;;;;;;;14.18;36.62;99707.13;5086237;28;20028;-86
2022/10/19 08:04:21;;;;;;;7.40;4.15;;;;;;;13.83;36.12;99701.19;5087912;28;20047;-86
2022/10/19 08:06:47;;;;;;;13.70;3.85;;;;;;;14.03;36.34;99699.41;5092689;28;20058;-88
2022/10/19 08:09:13;;;;;;;9.43;4.70;;;;;;;14.22;35.36;99684.75;5085951;28;20479;-86
2022/10/19 08:11:39;;;;;;;32.08;15.90;;;;;;;14.49;35.13;99709.66;5075852;28;20031;-86
2022/10/19 08:14:04;;;;;;;19.70;8.35;;;;;;;14.77;34.93;99701.25;5075777;28;20016;-86
2022/10/19 08:16:33;;;;;;;39.83;13.13;;;;;;;14.95;35.15;99675.59;5095387;28;20028;-86
2022/10/19 08:19:05;;;;;;;8.90;4.80;;;;;;;14.78;34.18;99693.63;5092310;28;20023;-86
2022/10/19 08:21:32;;;;;;;9.20;3.78;;;;;;;14.86;34.21;99689.84;5082856;28;20036;-87
2022/10/19 08:23:57;;;;;;;7.57;4.07;;;;;;;14.77;33.83;99681.53;5075528;28;20020;-86
2022/10/19 08:26:23;;;;;;;13.48;4.82;;;;;;;15.01;34.05;99680.63;5093630;28;20028;-87
2022/10/19 08:28:49;;;;;;;6.47;4.68;;;;;;;14.66;34.42;99672.75;5078077;28;20489;-88
2022/10/19 08:31:20;;;;;;;28.88;14.70;;;;;;;15.04;34.39;99655.72;5092489;28;20028;-87
2022/10/19 08:33:45;;;;;;;14.00;5.28;;;;;;;15.36;33.62;99670.66;5075546;28;20047;-88
2022/10/19 08:36:12;;;;;;;10.60;4.57;;;;;;;15.40;33.02;99663.13;5094576;28;20031;-86
2022/10/19 08:38:38;;;;;;;12.85;4.40;;;;;;;15.63;32.84;99661.66;5078204;28;20581;-87
2022/10/19 08:41:36;;;;;;;6.95;4.38;;;;;;;15.71;32.56;99644.53;5095465;28;20028;-87
2022/10/19 08:44:32;;;;;;;8.85;3.75;;;;;;;15.91;32.73;99663.56;5095792;28;20114;-87
2022/10/19 08:47:39;;;;;;;12.43;4.50;;;;;;;16.10;32.57;99660.78;5086806;28;20409;-87
2022/10/19 08:50:24;;;;;;;9.57;4.07;;;;;;;16.35;32.64;99656.88;5031707;28;20478;-87
2022/10/19 08:53:21;;;;;;;9.52;3.78;;;;;;;16.53;32.35;99657.25;5034553;28;20029;-87
2022/10/19 08:56:04;;;;;;;7.68;3.38;;;;;;;16.80;31.61;99660.25;5067167;28;20039;-87
2022/10/19 08:58:39;;;;;;;4.80;3.85;;;;;;;16.70;31.35;99656.81;5075236;28;20027;-87
2022/10/19 09:01:23;;;;;;;8.90;4.07;;;;;;;17.10;31.55;99660.47;5075260;28;20036;-88
2022/10/19 09:04:21;;;;;;;10.45;4.95;;;;;;;17.14;30.97;99652.06;5076626;28;20028;-88
2022/10/19 09:06:48;;;;;;;5.15;3.47;;;;;;;17.39;30.14;99641.16;5093114;28;20486;-87
2022/10/19 09:09:14;;;;;;;9.25;4.00;;;;;;;17.54;30.75;99639.41;5077466;28;20498;-87
2022/10/19 09:11:45;;;;;;;8.63;4.35;;;;;;;17.71;30.52;99636.44;5074811;28;20482;-88
2022/10/19 09:14:19;;;;;;;9.13;3.95;;;;;;;17.97;29.75;99635.59;5074798;28;20106;-86
2022/10/19 09:16:45;;;;;;;11.65;4.07;;;;;;;17.97;30.19;99610.13;5091817;28;20118;-87
2022/10/19 09:19:24;;;;;;;12.70;4.00;;;;;;;17.52;29.83;99630.50;5094366;28;20067;-87
2022/10/19 09:21:57;;;;;;;5.35;3.92;;;;;;;17.00;30.46;99630.00;5094555;28;20027;-87
2022/10/19 09:24:42;;;;;;;15.18;4.43;;;;;;;17.36;30.10;99627.81;5094097;28;20072;-87
2022/10/19 09:27:20;;;;;;;27.60;4.63;;;;;;;17.79;30.20;99630.50;5093913;28;20118;-88
2022/10/19 09:30:16;;;;;;;12.20;4.38;;;;;;;18.09;29.25;99624.09;5094322;28;20028;-88
2022/10/19 09:32:42;;;;;;;12.23;4.10;;;;;;;18.22;29.36;99623.84;5080102;28;20032;-87
2022/10/19 09:35:35;;;;;;;8.00;3.97;;;;;;;18.46;28.74;99613.25;5093103;28;20431;-87
2022/10/19 09:38:01;;;;;;;4.47;3.10;;;;;;;18.62;28.27;99611.03;5093388;28;20513;-87
2022/10/19 09:40:29;;;;;;;7.15;3.97;;;;;;;18.43;28.41;99597.03;5082021;28;20023;-87
2022/10/19 09:43:02;;;;;;;15.93;3.83;;;;;;;18.66;28.24;99605.41;5091918;28;20012;-87
2022/10/19 09:45:30;;;;;;;6.03;4.13;;;;;;;18.84;27.86;99605.59;5081145;28;20024;-85
2022/10/19 09:47:57;;;;;;;5.45;3.97;;;;;;;19.05;27.85;99590.88;5098627;28;20413;-84
2022/10/19 09:50:25;;;;;;;11.70;3.85;;;;;;;19.42;28.16;99594.81;5093963;28;20031;-84
2022/10/19 09:52:52;;;;;;;8.38;4.70;;;;;;;19.50;26.98;99595.72;5094630;28;20486;-86
2022/10/19 09:55:42;;;;;;;8.32;3.85;;;;;;;19.67;26.56;99591.38;5095072;28;20027;-85
2022/10/19 09:58:13;;;;;;;;;;;;;;;19.73;26.19;99594.63;5095089;28;20019;-85
2022/10/19 10:00:50;;;;;;;7.00;4.45;;;;;;;19.86;26.43;99586.63;5094376;28;19907;-85
2022/10/19 10:03:24;;;;;;;6.97;4.40;;;;;;;19.96;26.04;99593.59;5088234;28;20620;-85
2022/10/19 10:05:50;;;;;;;13.10;4.43;;;;;;;19.95;26.06;99570.09;5074140;28;20020;-85
2022/10/19 10:08:24;;;;;;;10.18;3.90;;;;;;;20.00;26.05;99578.22;5081467;28;20357;-85
2022/10/19 10:11:09;;;;;;;9.25;3.72;;;;;;;19.97;26.24;99573.34;5087280;28;20031;-85
2022/10/19 10:13:47;;;;;;;9.43;3.72;;;;;;;20.15;25.62;99567.75;5066597;28;20024;-85
2022/10/19 10:16:15;;;;;;;8.60;4.28;;;;;;;20.12;25.74;99567.72;5068442;28;20122;-85
2022/10/19 10:19:03;;;;;;;12.07;4.85;;;;;;;19.49;26.20;99560.84;5077589;28;20023;-85
2022/10/19 10:21:33;;;;;;;10.07;5.07;;;;;;;19.44;26.66;99547.03;5092501;28;20057;-85
2022/10/19 10:24:05;;;;;;;10.13;4.82;;;;;;;19.57;26.87;99539.00;5083042;28;20028;-85
2022/10/19 10:26:41;;;;;;;7.20;4.15;;;;;;;19.88;26.61;99519.75;5090064;28;20031;-85
2022/10/19 10:29:18;;;;;;;8.95;5.03;;;;;;;20.33;25.58;99535.75;5086538;28;20047;-85
2022/10/19 10:31:44;;;;;;;11.77;5.32;;;;;;;20.17;25.74;99541.81;5102456;28;20038;-85
2022/10/19 10:34:15;;;;;;;8.95;4.82;;;;;;;20.56;25.74;99534.63;5085220;28;20497;-85
2022/10/19 10:36:42;;;;;;;9.05;4.38;;;;;;;20.67;25.29;99532.63;5078366;28;20028;-85
2022/10/19 10:39:14;;;;;;;11.18;4.75;;;;;;;20.63;26.03;99528.97;5086812;28;20031;-85
2022/10/19 10:41:43;;;;;;;10.02;4.10;;;;;;;20.86;26.01;99531.47;5072295;28;20031;-85
2022/10/19 10:44:28;;;;;;;11.00;4.38;;;;;;;21.17;26.05;99505.47;5071969;28;20036;-86
2022/10/19 10:47:03;;;;;;;11.63;4.13;;;;;;;21.22;24.36;99519.31;5088399;28;20105;-85
2022/10/19 10:49:31;;;;;;;5.38;3.90;;;;;;;21.42;24.90;99511.16;5101715;28;20136;-85
2022/10/19 10:52:02;;;;;;;11.30;4.15;;;;;;;21.43;24.91;99492.06;5093652;28;20434;-85
2022/10/19 10:54:32;;;;;;;22.35;4.97;;;;;;;21.31;25.54;99484.75;5092385;28;20114;-85
2022/10/19 10:57:26;;;;;;;6.47;3.97;;;;;;;21.39;25.06;99497.75;5077801;28;20054;-85
2022/10/19 11:00:12;;;;;;;6.97;5.00;;;;;;;21.55;25.03;99496.50;5075451;28;20449;-85
2022/10/19 11:03:02;;;;;;;11.70;5.35;;;;;;;21.69;25.05;99495.69;5076634;28;20023;-86
2022/10/19 11:05:52;;;;;;;7.10;4.38;;;;;;;21.80;24.11;99487.09;5081685;28;20398;-85
2022/10/19 11:08:26;;;;;;;8.40;5.40;;;;;;;21.98;25.04;99484.19;5089649;28;20023;-85
2022/10/19 11:11:09;;;;;;;8.25;4.43;;;;;;;22.04;24.42;99470.34;5096126;28;20478;-84
2022/10/19 11:13:40;;;;;;;7.05;4.43;;;;;;;22.14;24.47;99475.19;5087646;28;20047;-85
2022/10/19 11:16:18;;;;;;;12.45;3.92;;;;;;;22.20;24.71;99470.66;5076255;28;20027;-85
2022/10/19 11:18:52;;;;;;;11.55;4.55;;;;;;;22.28;24.43;99471.44;5087267;28;20020;-86
2022/10/19 11:21:22;;;;;;;10.93;4.55;;;;;;;22.20;24.07;99469.84;5076525;28;20028;-84
2022/10/19 11:23:48;;;;;;;;;;;;;;;21.96;24.71;99469.56;5098720;28;20023;-86
2022/10/19 11:26:49;;;;;;;6.90;3.90;;;;;;;22.22;24.12;99464.56;5096457;28;19908;-86
2022/10/19 11:29:23;;;;;;;9.18;4.18;;;;;;;22.14;24.53;99456.06;5048139;28;20163;-85
2022/10/19 11:31:53;;;;;;;27.85;5.57;;;;;;;21.92;24.81;99458.19;5096500;28;20458;-85
2022/10/19 11:34:40;;;;;;;7.78;3.85;;;;;;;22.00;24.75;99451.25;5096617;28;20532;-85
2022/10/19 11:37:28;;;;;;;9.55;3.92;;;;;;;21.97;24.99;99443.53;5091338;28;20075;-87
2022/10/19 11:40:13;;;;;;;11.98;4.05;;;;;;;22.09;24.31;99438.59;5095564;28;20027;-90
2022/10/19 11:42:48;;;;;;;5.15;3.90;;;;;;;22.14;24.48;99441.81;5095883;28;20125;-87
2022/10/19 11:45:36;;;;;;;10.15;3.55;;;;;;;22.13;24.47;99431.63;5093486;28;20028;-88